LFBI/PIS METAR and TAF weather

Enter ICAO airport designator
Station Type Date Time Source
LFBI METAR 2021/07/24 20:30 UTC NOAA

LFBI 242030Z AUTO 21009KT 9999 SCT029 SCT034 BKN048 18/15 Q1011 TEMPO 3000 SHRA BKN013TCU


Station Type Date Time Source
LFBI Decoded METAR 2021/07/24 20:30 UTC NOAA

Poitiers, France (LFBI) 46-35N 000-19E 120M
Jul 24, 2021 - 04:30 PM EDT / 2021.07.24 2030 UTC
Wind: from the SSW (210 degrees) at 10 MPH (9 KT):0
Visibility: greater than 7 mile(s):0
Sky conditions: mostly cloudy
Weather: Towering cumulus clouds observed
Temperature: 64 F (18 C)
Dew Point: 59 F (15 C)
Relative Humidity: 82%
Pressure (altimeter): 29.85 in. Hg (1011 hPa)
ob: LFBI 242030Z AUTO 21009KT 9999 SCT029 SCT034 BKN048 18/15 Q1011 TEMPO 3000 SHRA BKN013TCU
cycle: 20

Station Type Date Time Source
LFBI TAF 2021/07/24 18:23 UTC NOAA

TAF
AMD LFBI 241915Z 2418/2518 22010KT 9999 BKN030
TEMPO 2419/2421 22015G25KT PROB40
TEMPO 2419/2512 3000 SHRA BKN013TCU PROB40
TEMPO 2423/2509 BKN007 PROB30
TEMPO 2512/2518 25015G25KT

Example: see airport list